sensor_id;sensor_type;location;lat;lon;timestamp;P1;durP1;ratioP1;P2;durP2;ratioP2
70228;SDS011;57617;51.988;5.854;2023-05-10T00:00:13;49.55;;;17.88;;
70228;SDS011;57617;51.988;5.854;2023-05-10T00:02:38;55.45;;;19.40;;
70228;SDS011;57617;51.988;5.854;2023-05-10T00:05:04;53.63;;;18.98;;
70228;SDS011;57617;51.988;5.854;2023-05-10T00:07:30;52.38;;;19.30;;
70228;SDS011;57617;51.988;5.854;2023-05-10T00:09:55;60.97;;;20.77;;
70228;SDS011;57617;51.988;5.854;2023-05-10T00:12:20;59.67;;;20.38;;
70228;SDS011;57617;51.988;5.854;2023-05-10T00:14:46;56.75;;;20.27;;
70228;SDS011;57617;51.988;5.854;2023-05-10T00:17:11;62.03;;;21.38;;
70228;SDS011;57617;51.988;5.854;2023-05-10T00:19:36;57.70;;;20.75;;
70228;SDS011;57617;51.988;5.854;2023-05-10T00:22:01;65.57;;;21.45;;
70228;SDS011;57617;51.988;5.854;2023-05-10T00:24:27;60.42;;;20.20;;
70228;SDS011;57617;51.988;5.854;2023-05-10T00:26:52;59.55;;;21.30;;
70228;SDS011;57617;51.988;5.854;2023-05-10T00:29:17;63.70;;;21.55;;
70228;SDS011;57617;51.988;5.854;2023-05-10T00:31:43;64.93;;;22.17;;
70228;SDS011;57617;51.988;5.854;2023-05-10T00:34:08;68.88;;;21.75;;
70228;SDS011;57617;51.988;5.854;2023-05-10T00:36:33;68.03;;;24.30;;
70228;SDS011;57617;51.988;5.854;2023-05-10T00:38:58;97.85;;;25.88;;
70228;SDS011;57617;51.988;5.854;2023-05-10T00:41:24;69.93;;;24.25;;
70228;SDS011;57617;51.988;5.854;2023-05-10T00:43:49;78.00;;;24.80;;
70228;SDS011;57617;51.988;5.854;2023-05-10T00:46:14;67.30;;;24.70;;
70228;SDS011;57617;51.988;5.854;2023-05-10T00:48:40;70.40;;;25.23;;
70228;SDS011;57617;51.988;5.854;2023-05-10T00:51:06;77.05;;;26.05;;
70228;SDS011;57617;51.988;5.854;2023-05-10T00:53:31;76.57;;;26.42;;
70228;SDS011;57617;51.988;5.854;2023-05-10T00:55:57;80.97;;;26.95;;
70228;SDS011;57617;51.988;5.854;2023-05-10T00:58:24;78.88;;;27.40;;
70228;SDS011;57617;51.988;5.854;2023-05-10T01:00:53;85.50;;;28.65;;
70228;SDS011;57617;51.988;5.854;2023-05-10T01:03:19;76.93;;;27.42;;
70228;SDS011;57617;51.988;5.854;2023-05-10T01:05:45;91.35;;;29.67;;
70228;SDS011;57617;51.988;5.854;2023-05-10T01:08:11;78.78;;;28.20;;
70228;SDS011;57617;51.988;5.854;2023-05-10T01:10:36;92.55;;;28.95;;
70228;SDS011;57617;51.988;5.854;2023-05-10T01:13:02;86.97;;;28.95;;
70228;SDS011;57617;51.988;5.854;2023-05-10T01:15:28;88.20;;;29.00;;
70228;SDS011;57617;51.988;5.854;2023-05-10T01:17:54;94.32;;;29.40;;
70228;SDS011;57617;51.988;5.854;2023-05-10T01:20:20;90.95;;;30.40;;
70228;SDS011;57617;51.988;5.854;2023-05-10T01:34:02;93.03;;;30.23;;
70228;SDS011;57617;51.988;5.854;2023-05-10T01:36:42;95.72;;;30.08;;
70228;SDS011;57617;51.988;5.854;2023-05-10T01:42:03;98.72;;;29.60;;
70228;SDS011;57617;51.988;5.854;2023-05-10T01:44:47;98.25;;;28.77;;
70228;SDS011;57617;51.988;5.854;2023-05-10T01:47:23;97.35;;;28.98;;
70228;SDS011;57617;51.988;5.854;2023-05-10T01:50:00;90.75;;;29.10;;
70228;SDS011;57617;51.988;5.854;2023-05-10T01:52:30;99.55;;;29.50;;
70228;SDS011;57617;51.988;5.854;2023-05-10T01:55:00;90.60;;;27.63;;
70228;SDS011;57617;51.988;5.854;2023-05-10T01:57:30;92.20;;;27.38;;
70228;SDS011;57617;51.988;5.854;2023-05-10T02:00:01;92.32;;;27.60;;
70228;SDS011;57617;51.988;5.854;2023-05-10T02:02:29;92.18;;;27.33;;
70228;SDS011;57617;51.988;5.854;2023-05-10T02:04:58;83.43;;;26.77;;
70228;SDS011;57617;51.988;5.854;2023-05-10T02:07:24;84.05;;;26.58;;
70228;SDS011;57617;51.988;5.854;2023-05-10T02:09:53;87.03;;;25.38;;
70228;SDS011;57617;51.988;5.854;2023-05-10T02:12:20;86.63;;;26.35;;
70228;SDS011;57617;51.988;5.854;2023-05-10T02:14:48;82.80;;;26.73;;
70228;SDS011;57617;51.988;5.854;2023-05-10T02:17:15;82.28;;;25.50;;
70228;SDS011;57617;51.988;5.854;2023-05-10T02:19:41;80.45;;;26.38;;
70228;SDS011;57617;51.988;5.854;2023-05-10T02:22:08;87.05;;;25.55;;
70228;SDS011;57617;51.988;5.854;2023-05-10T02:24:35;89.28;;;24.83;;
70228;SDS011;57617;51.988;5.854;2023-05-10T02:27:02;90.68;;;26.42;;
70228;SDS011;57617;51.988;5.854;2023-05-10T02:29:29;82.10;;;26.17;;
70228;SDS011;57617;51.988;5.854;2023-05-10T02:31:56;90.45;;;26.63;;
70228;SDS011;57617;51.988;5.854;2023-05-10T02:34:23;94.70;;;25.73;;
70228;SDS011;57617;51.988;5.854;2023-05-10T02:36:50;95.28;;;26.75;;
70228;SDS011;57617;51.988;5.854;2023-05-10T02:39:18;100.30;;;27.15;;
70228;SDS011;57617;51.988;5.854;2023-05-10T02:41:45;99.95;;;26.15;;
70228;SDS011;57617;51.988;5.854;2023-05-10T02:44:12;94.85;;;25.77;;
70228;SDS011;57617;51.988;5.854;2023-05-10T02:46:40;95.20;;;26.42;;
70228;SDS011;57617;51.988;5.854;2023-05-10T02:49:05;101.07;;;27.13;;
70228;SDS011;57617;51.988;5.854;2023-05-10T02:51:32;92.63;;;26.58;;
70228;SDS011;57617;51.988;5.854;2023-05-10T02:54:06;106.20;;;27.50;;
70228;SDS011;57617;51.988;5.854;2023-05-10T02:56:37;94.00;;;26.80;;
70228;SDS011;57617;51.988;5.854;2023-05-10T02:59:07;110.88;;;27.88;;
70228;SDS011;57617;51.988;5.854;2023-05-10T03:01:33;106.65;;;27.15;;
70228;SDS011;57617;51.988;5.854;2023-05-10T03:03:58;105.30;;;26.33;;
70228;SDS011;57617;51.988;5.854;2023-05-10T03:06:24;98.05;;;27.15;;
70228;SDS011;57617;51.988;5.854;2023-05-10T03:08:49;103.00;;;28.10;;
70228;SDS011;57617;51.988;5.854;2023-05-10T03:14:16;99.63;;;27.52;;
70228;SDS011;57617;51.988;5.854;2023-05-10T03:16:58;118.97;;;28.58;;
70228;SDS011;57617;51.988;5.854;2023-05-10T03:19:34;104.68;;;27.10;;
70228;SDS011;57617;51.988;5.854;2023-05-10T03:22:20;99.63;;;27.45;;
70228;SDS011;57617;51.988;5.854;2023-05-10T03:24:49;95.50;;;27.45;;
70228;SDS011;57617;51.988;5.854;2023-05-10T03:27:17;89.70;;;26.23;;
70228;SDS011;57617;51.988;5.854;2023-05-10T03:29:43;95.50;;;26.55;;
70228;SDS011;57617;51.988;5.854;2023-05-10T03:32:10;127.60;;;33.25;;
70228;SDS011;57617;51.988;5.854;2023-05-10T03:34:36;88.85;;;27.45;;
70228;SDS011;57617;51.988;5.854;2023-05-10T03:37:06;90.13;;;26.77;;
70228;SDS011;57617;51.988;5.854;2023-05-10T03:39:31;81.55;;;25.58;;
70228;SDS011;57617;51.988;5.854;2023-05-10T03:41:57;98.20;;;27.60;;
70228;SDS011;57617;51.988;5.854;2023-05-10T03:44:22;104.72;;;28.73;;
70228;SDS011;57617;51.988;5.854;2023-05-10T03:46:47;97.15;;;28.55;;
70228;SDS011;57617;51.988;5.854;2023-05-10T03:49:12;94.97;;;28.95;;
70228;SDS011;57617;51.988;5.854;2023-05-10T03:51:38;99.25;;;28.10;;
70228;SDS011;57617;51.988;5.854;2023-05-10T03:54:03;98.03;;;28.38;;
70228;SDS011;57617;51.988;5.854;2023-05-10T03:56:28;86.82;;;28.25;;
70228;SDS011;57617;51.988;5.854;2023-05-10T03:58:54;86.80;;;27.42;;
70228;SDS011;57617;51.988;5.854;2023-05-10T04:01:19;91.68;;;28.05;;
70228;SDS011;57617;51.988;5.854;2023-05-10T04:03:44;97.68;;;27.63;;
70228;SDS011;57617;51.988;5.854;2023-05-10T04:06:09;84.80;;;27.33;;
70228;SDS011;57617;51.988;5.854;2023-05-10T04:08:36;80.88;;;26.25;;
70228;SDS011;57617;51.988;5.854;2023-05-10T04:11:08;81.68;;;26.30;;
70228;SDS011;57617;51.988;5.854;2023-05-10T04:13:34;75.47;;;25.30;;
70228;SDS011;57617;51.988;5.854;2023-05-10T04:16:00;84.47;;;26.05;;
70228;SDS011;57617;51.988;5.854;2023-05-10T04:18:25;79.05;;;24.88;;
70228;SDS011;57617;51.988;5.854;2023-05-10T04:20:51;73.75;;;25.42;;
70228;SDS011;57617;51.988;5.854;2023-05-10T04:23:16;76.93;;;24.95;;
70228;SDS011;57617;51.988;5.854;2023-05-10T04:25:41;79.30;;;24.80;;
70228;SDS011;57617;51.988;5.854;2023-05-10T04:28:07;80.05;;;24.15;;
70228;SDS011;57617;51.988;5.854;2023-05-10T04:30:32;83.57;;;26.27;;
70228;SDS011;57617;51.988;5.854;2023-05-10T04:32:58;84.07;;;25.65;;
70228;SDS011;57617;51.988;5.854;2023-05-10T04:35:23;87.75;;;25.63;;
70228;SDS011;57617;51.988;5.854;2023-05-10T04:37:48;83.60;;;26.25;;
70228;SDS011;57617;51.988;5.854;2023-05-10T04:40:14;81.60;;;26.17;;
70228;SDS011;57617;51.988;5.854;2023-05-10T04:42:39;81.50;;;24.95;;
70228;SDS011;57617;51.988;5.854;2023-05-10T04:45:06;89.90;;;24.38;;
70228;SDS011;57617;51.988;5.854;2023-05-10T04:47:31;84.78;;;25.25;;
70228;SDS011;57617;51.988;5.854;2023-05-10T04:49:57;83.82;;;25.27;;
70228;SDS011;57617;51.988;5.854;2023-05-10T04:52:23;84.05;;;24.45;;
70228;SDS011;57617;51.988;5.854;2023-05-10T04:54:48;83.80;;;25.13;;
70228;SDS011;57617;51.988;5.854;2023-05-10T04:57:14;90.40;;;25.13;;
70228;SDS011;57617;51.988;5.854;2023-05-10T04:59:39;92.72;;;25.15;;
70228;SDS011;57617;51.988;5.854;2023-05-10T05:02:04;87.15;;;23.92;;
70228;SDS011;57617;51.988;5.854;2023-05-10T05:04:30;85.40;;;24.08;;
70228;SDS011;57617;51.988;5.854;2023-05-10T05:06:56;80.32;;;24.55;;
70228;SDS011;57617;51.988;5.854;2023-05-10T05:09:21;79.72;;;25.80;;
70228;SDS011;57617;51.988;5.854;2023-05-10T05:11:46;84.97;;;24.45;;
70228;SDS011;57617;51.988;5.854;2023-05-10T05:14:11;77.43;;;24.17;;
70228;SDS011;57617;51.988;5.854;2023-05-10T05:16:37;81.13;;;23.85;;
70228;SDS011;57617;51.988;5.854;2023-05-10T05:19:02;80.30;;;24.10;;
70228;SDS011;57617;51.988;5.854;2023-05-10T05:21:27;82.25;;;24.23;;
70228;SDS011;57617;51.988;5.854;2023-05-10T05:23:53;74.95;;;23.17;;
70228;SDS011;57617;51.988;5.854;2023-05-10T05:26:19;81.35;;;23.45;;
70228;SDS011;57617;51.988;5.854;2023-05-10T05:28:44;79.88;;;23.40;;
70228;SDS011;57617;51.988;5.854;2023-05-10T05:31:09;91.53;;;23.88;;
70228;SDS011;57617;51.988;5.854;2023-05-10T05:33:35;74.35;;;24.52;;
70228;SDS011;57617;51.988;5.854;2023-05-10T05:36:01;80.80;;;24.55;;
70228;SDS011;57617;51.988;5.854;2023-05-10T05:38:30;82.72;;;24.55;;
70228;SDS011;57617;51.988;5.854;2023-05-10T05:40:55;77.60;;;24.35;;
70228;SDS011;57617;51.988;5.854;2023-05-10T05:43:21;76.85;;;24.40;;
70228;SDS011;57617;51.988;5.854;2023-05-10T05:45:46;80.88;;;25.05;;
70228;SDS011;57617;51.988;5.854;2023-05-10T05:48:11;76.50;;;23.27;;
70228;SDS011;57617;51.988;5.854;2023-05-10T05:50:37;73.90;;;24.45;;
70228;SDS011;57617;51.988;5.854;2023-05-10T05:53:02;72.57;;;22.90;;
70228;SDS011;57617;51.988;5.854;2023-05-10T05:55:27;77.78;;;23.25;;
70228;SDS011;57617;51.988;5.854;2023-05-10T05:57:54;77.57;;;23.45;;
70228;SDS011;57617;51.988;5.854;2023-05-10T06:00:19;84.93;;;24.80;;
70228;SDS011;57617;51.988;5.854;2023-05-10T06:02:46;76.13;;;23.70;;
70228;SDS011;57617;51.988;5.854;2023-05-10T06:05:11;79.15;;;24.48;;
70228;SDS011;57617;51.988;5.854;2023-05-10T06:07:36;80.75;;;23.60;;
70228;SDS011;57617;51.988;5.854;2023-05-10T06:10:02;84.93;;;23.88;;
70228;SDS011;57617;51.988;5.854;2023-05-10T06:12:27;80.65;;;24.15;;
70228;SDS011;57617;51.988;5.854;2023-05-10T06:14:53;94.80;;;23.65;;
70228;SDS011;57617;51.988;5.854;2023-05-10T06:17:18;83.97;;;23.98;;
70228;SDS011;57617;51.988;5.854;2023-05-10T06:19:43;84.30;;;24.60;;
70228;SDS011;57617;51.988;5.854;2023-05-10T06:22:09;92.65;;;24.50;;
70228;SDS011;57617;51.988;5.854;2023-05-10T06:24:34;84.28;;;25.00;;
70228;SDS011;57617;51.988;5.854;2023-05-10T06:26:59;83.63;;;25.00;;
70228;SDS011;57617;51.988;5.854;2023-05-10T06:29:25;84.55;;;25.52;;
70228;SDS011;57617;51.988;5.854;2023-05-10T06:31:50;83.40;;;23.85;;
70228;SDS011;57617;51.988;5.854;2023-05-10T06:34:16;84.55;;;24.83;;
70228;SDS011;57617;51.988;5.854;2023-05-10T06:36:41;94.57;;;24.90;;
70228;SDS011;57617;51.988;5.854;2023-05-10T06:39:06;75.63;;;23.60;;
70228;SDS011;57617;51.988;5.854;2023-05-10T06:41:32;81.45;;;24.40;;
70228;SDS011;57617;51.988;5.854;2023-05-10T06:43:57;82.30;;;24.50;;
70228;SDS011;57617;51.988;5.854;2023-05-10T06:46:22;90.53;;;25.75;;
70228;SDS011;57617;51.988;5.854;2023-05-10T06:48:48;83.22;;;26.58;;
70228;SDS011;57617;51.988;5.854;2023-05-10T06:51:13;95.00;;;28.98;;
70228;SDS011;57617;51.988;5.854;2023-05-10T06:53:38;108.75;;;36.67;;
70228;SDS011;57617;51.988;5.854;2023-05-10T06:56:03;89.90;;;28.10;;
70228;SDS011;57617;51.988;5.854;2023-05-10T06:58:29;98.88;;;31.38;;
70228;SDS011;57617;51.988;5.854;2023-05-10T07:00:54;86.35;;;27.95;;
70228;SDS011;57617;51.988;5.854;2023-05-10T07:03:19;98.47;;;29.33;;
70228;SDS011;57617;51.988;5.854;2023-05-10T07:05:45;86.82;;;28.27;;
70228;SDS011;57617;51.988;5.854;2023-05-10T07:08:10;98.13;;;29.67;;
70228;SDS011;57617;51.988;5.854;2023-05-10T07:10:35;96.85;;;30.45;;
70228;SDS011;57617;51.988;5.854;2023-05-10T07:13:00;95.28;;;28.90;;
70228;SDS011;57617;51.988;5.854;2023-05-10T07:15:26;93.65;;;28.50;;
70228;SDS011;57617;51.988;5.854;2023-05-10T07:17:51;102.10;;;29.38;;
70228;SDS011;57617;51.988;5.854;2023-05-10T07:20:17;92.97;;;27.67;;
70228;SDS011;57617;51.988;5.854;2023-05-10T07:22:42;92.68;;;26.73;;
70228;SDS011;57617;51.988;5.854;2023-05-10T07:25:07;97.97;;;27.77;;
70228;SDS011;57617;51.988;5.854;2023-05-10T07:27:33;99.05;;;29.10;;
70228;SDS011;57617;51.988;5.854;2023-05-10T07:29:58;95.15;;;28.55;;
70228;SDS011;57617;51.988;5.854;2023-05-10T07:32:23;105.95;;;28.58;;
70228;SDS011;57617;51.988;5.854;2023-05-10T07:34:49;92.18;;;26.42;;
70228;SDS011;57617;51.988;5.854;2023-05-10T07:37:14;98.00;;;27.30;;
70228;SDS011;57617;51.988;5.854;2023-05-10T07:39:39;93.85;;;26.40;;
70228;SDS011;57617;51.988;5.854;2023-05-10T07:42:04;89.57;;;27.10;;
70228;SDS011;57617;51.988;5.854;2023-05-10T07:44:30;93.07;;;26.42;;
70228;SDS011;57617;51.988;5.854;2023-05-10T07:46:55;91.45;;;25.67;;
70228;SDS011;57617;51.988;5.854;2023-05-10T07:49:21;86.30;;;25.02;;
70228;SDS011;57617;51.988;5.854;2023-05-10T07:51:49;94.22;;;26.83;;
70228;SDS011;57617;51.988;5.854;2023-05-10T07:54:14;97.35;;;27.17;;
70228;SDS011;57617;51.988;5.854;2023-05-10T07:56:39;88.18;;;26.80;;
70228;SDS011;57617;51.988;5.854;2023-05-10T07:59:09;97.20;;;27.13;;
70228;SDS011;57617;51.988;5.854;2023-05-10T08:01:35;94.75;;;27.05;;
70228;SDS011;57617;51.988;5.854;2023-05-10T08:04:00;90.63;;;25.92;;
70228;SDS011;57617;51.988;5.854;2023-05-10T08:06:26;83.95;;;26.30;;
70228;SDS011;57617;51.988;5.854;2023-05-10T08:08:53;93.78;;;26.38;;
70228;SDS011;57617;51.988;5.854;2023-05-10T08:11:22;87.82;;;25.33;;
70228;SDS011;57617;51.988;5.854;2023-05-10T08:13:48;85.30;;;25.48;;
70228;SDS011;57617;51.988;5.854;2023-05-10T08:16:14;89.65;;;26.10;;
70228;SDS011;57617;51.988;5.854;2023-05-10T08:18:40;81.57;;;26.15;;
70228;SDS011;57617;51.988;5.854;2023-05-10T08:21:06;84.65;;;25.33;;
70228;SDS011;57617;51.988;5.854;2023-05-10T08:23:31;86.25;;;25.33;;
70228;SDS011;57617;51.988;5.854;2023-05-10T08:25:56;80.05;;;24.75;;
70228;SDS011;57617;51.988;5.854;2023-05-10T08:28:22;81.72;;;23.65;;
70228;SDS011;57617;51.988;5.854;2023-05-10T08:30:49;76.68;;;23.70;;
70228;SDS011;57617;51.988;5.854;2023-05-10T08:33:15;71.28;;;23.60;;
70228;SDS011;57617;51.988;5.854;2023-05-10T08:35:40;58.83;;;20.63;;
70228;SDS011;57617;51.988;5.854;2023-05-10T08:38:06;59.50;;;20.90;;
70228;SDS011;57617;51.988;5.854;2023-05-10T08:40:31;61.40;;;19.98;;
70228;SDS011;57617;51.988;5.854;2023-05-10T08:42:58;51.83;;;18.55;;
70228;SDS011;57617;51.988;5.854;2023-05-10T08:45:31;49.63;;;17.20;;
70228;SDS011;57617;51.988;5.854;2023-05-10T08:47:59;45.72;;;16.20;;
70228;SDS011;57617;51.988;5.854;2023-05-10T08:50:26;44.50;;;15.80;;
70228;SDS011;57617;51.988;5.854;2023-05-10T08:52:52;37.80;;;14.50;;
70228;SDS011;57617;51.988;5.854;2023-05-10T08:55:22;37.58;;;15.25;;
70228;SDS011;57617;51.988;5.854;2023-05-10T08:57:49;40.03;;;14.88;;
70228;SDS011;57617;51.988;5.854;2023-05-10T09:00:14;36.78;;;14.45;;
70228;SDS011;57617;51.988;5.854;2023-05-10T09:02:41;31.17;;;13.60;;
70228;SDS011;57617;51.988;5.854;2023-05-10T09:05:08;33.15;;;13.13;;
70228;SDS011;57617;51.988;5.854;2023-05-10T09:07:34;31.83;;;12.55;;
70228;SDS011;57617;51.988;5.854;2023-05-10T09:10:00;32.40;;;11.95;;
70228;SDS011;57617;51.988;5.854;2023-05-10T09:12:26;31.73;;;11.90;;
70228;SDS011;57617;51.988;5.854;2023-05-10T09:14:52;35.35;;;12.00;;
70228;SDS011;57617;51.988;5.854;2023-05-10T09:17:19;28.08;;;12.25;;
70228;SDS011;57617;51.988;5.854;2023-05-10T09:19:45;26.67;;;11.20;;
70228;SDS011;57617;51.988;5.854;2023-05-10T09:22:10;28.95;;;11.07;;
70228;SDS011;57617;51.988;5.854;2023-05-10T09:24:36;29.77;;;10.77;;
70228;SDS011;57617;51.988;5.854;2023-05-10T09:27:07;25.75;;;9.00;;
70228;SDS011;57617;51.988;5.854;2023-05-10T09:29:38;25.20;;;8.85;;
70228;SDS011;57617;51.988;5.854;2023-05-10T09:32:05;19.60;;;9.05;;
70228;SDS011;57617;51.988;5.854;2023-05-10T09:34:31;23.20;;;9.13;;
70228;SDS011;57617;51.988;5.854;2023-05-10T09:36:58;18.98;;;8.48;;
70228;SDS011;57617;51.988;5.854;2023-05-10T09:39:35;21.38;;;8.20;;
70228;SDS011;57617;51.988;5.854;2023-05-10T09:42:03;24.35;;;8.55;;
70228;SDS011;57617;51.988;5.854;2023-05-10T09:44:35;20.55;;;8.75;;
70228;SDS011;57617;51.988;5.854;2023-05-10T09:47:01;21.02;;;8.23;;
70228;SDS011;57617;51.988;5.854;2023-05-10T09:49:27;17.75;;;8.38;;
70228;SDS011;57617;51.988;5.854;2023-05-10T09:51:59;20.55;;;8.40;;
70228;SDS011;57617;51.988;5.854;2023-05-10T09:54:29;18.58;;;8.15;;
70228;SDS011;57617;51.988;5.854;2023-05-10T09:56:54;20.13;;;8.35;;
70228;SDS011;57617;51.988;5.854;2023-05-10T09:59:19;22.27;;;8.02;;
70228;SDS011;57617;51.988;5.854;2023-05-10T10:01:51;22.42;;;8.90;;
70228;SDS011;57617;51.988;5.854;2023-05-10T10:04:16;17.15;;;7.78;;
70228;SDS011;57617;51.988;5.854;2023-05-10T10:06:42;25.02;;;8.68;;
70228;SDS011;57617;51.988;5.854;2023-05-10T10:09:08;20.45;;;7.95;;
70228;SDS011;57617;51.988;5.854;2023-05-10T10:11:34;23.75;;;8.50;;
70228;SDS011;57617;51.988;5.854;2023-05-10T10:14:00;21.42;;;8.63;;
70228;SDS011;57617;51.988;5.854;2023-05-10T10:16:26;19.00;;;8.23;;
70228;SDS011;57617;51.988;5.854;2023-05-10T10:18:54;23.27;;;9.52;;
70228;SDS011;57617;51.988;5.854;2023-05-10T10:21:19;21.60;;;9.43;;
70228;SDS011;57617;51.988;5.854;2023-05-10T10:23:45;24.40;;;10.27;;
70228;SDS011;57617;51.988;5.854;2023-05-10T10:26:11;26.30;;;10.80;;
70228;SDS011;57617;51.988;5.854;2023-05-10T10:28:40;27.00;;;10.25;;
70228;SDS011;57617;51.988;5.854;2023-05-10T10:31:17;26.08;;;9.95;;
70228;SDS011;57617;51.988;5.854;2023-05-10T10:33:55;25.95;;;10.10;;
70228;SDS011;57617;51.988;5.854;2023-05-10T10:36:24;23.98;;;10.50;;
70228;SDS011;57617;51.988;5.854;2023-05-10T10:52:22;27.67;;;10.15;;
70228;SDS011;57617;51.988;5.854;2023-05-10T11:02:51;26.55;;;10.27;;
70228;SDS011;57617;51.988;5.854;2023-05-10T11:07:58;26.88;;;9.68;;
70228;SDS011;57617;51.988;5.854;2023-05-10T11:10:25;22.83;;;10.65;;
70228;SDS011;57617;51.988;5.854;2023-05-10T11:13:01;25.45;;;9.50;;
70228;SDS011;57617;51.988;5.854;2023-05-10T11:15:40;22.30;;;9.73;;
70228;SDS011;57617;51.988;5.854;2023-05-10T11:18:26;24.63;;;9.20;;
70228;SDS011;57617;51.988;5.854;2023-05-10T11:20:57;20.45;;;9.20;;
70228;SDS011;57617;51.988;5.854;2023-05-10T11:23:47;18.55;;;7.90;;
70228;SDS011;57617;51.988;5.854;2023-05-10T11:26:14;17.95;;;8.45;;
70228;SDS011;57617;51.988;5.854;2023-05-10T11:28:48;22.08;;;8.52;;
70228;SDS011;57617;51.988;5.854;2023-05-10T11:31:14;18.55;;;8.27;;
70228;SDS011;57617;51.988;5.854;2023-05-10T11:33:53;16.13;;;7.85;;
70228;SDS011;57617;51.988;5.854;2023-05-10T11:36:20;26.27;;;9.88;;
70228;SDS011;57617;51.988;5.854;2023-05-10T11:38:47;20.80;;;9.30;;
70228;SDS011;57617;51.988;5.854;2023-05-10T11:41:13;26.20;;;9.00;;
70228;SDS011;57617;51.988;5.854;2023-05-10T11:43:40;19.92;;;9.07;;
70228;SDS011;57617;51.988;5.854;2023-05-10T11:46:10;21.17;;;8.25;;
70228;SDS011;57617;51.988;5.854;2023-05-10T11:48:40;20.77;;;9.00;;
70228;SDS011;57617;51.988;5.854;2023-05-10T11:51:06;22.95;;;8.68;;
70228;SDS011;57617;51.988;5.854;2023-05-10T11:53:32;15.57;;;7.97;;
70228;SDS011;57617;51.988;5.854;2023-05-10T11:56:08;16.58;;;8.23;;
70228;SDS011;57617;51.988;5.854;2023-05-10T11:58:35;22.45;;;8.82;;
70228;SDS011;57617;51.988;5.854;2023-05-10T12:01:01;18.10;;;8.52;;
70228;SDS011;57617;51.988;5.854;2023-05-10T12:03:28;16.08;;;8.27;;
70228;SDS011;57617;51.988;5.854;2023-05-10T12:05:54;16.45;;;8.40;;
70228;SDS011;57617;51.988;5.854;2023-05-10T12:08:21;16.33;;;7.93;;
70228;SDS011;57617;51.988;5.854;2023-05-10T12:10:48;35.30;;;9.20;;
70228;SDS011;57617;51.988;5.854;2023-05-10T12:13:14;16.05;;;8.32;;
70228;SDS011;57617;51.988;5.854;2023-05-10T12:15:40;17.95;;;7.95;;
70228;SDS011;57617;51.988;5.854;2023-05-10T12:18:08;14.50;;;7.40;;
70228;SDS011;57617;51.988;5.854;2023-05-10T12:20:37;19.92;;;7.68;;
70228;SDS011;57617;51.988;5.854;2023-05-10T12:23:03;17.38;;;7.50;;
70228;SDS011;57617;51.988;5.854;2023-05-10T12:25:30;17.35;;;7.38;;
70228;SDS011;57617;51.988;5.854;2023-05-10T12:28:00;15.10;;;7.18;;
70228;SDS011;57617;51.988;5.854;2023-05-10T12:30:29;20.88;;;7.53;;
70228;SDS011;57617;51.988;5.854;2023-05-10T12:33:00;14.00;;;6.60;;
70228;SDS011;57617;51.988;5.854;2023-05-10T12:35:29;13.43;;;6.45;;
70228;SDS011;57617;51.988;5.854;2023-05-10T12:37:55;14.48;;;6.32;;
70228;SDS011;57617;51.988;5.854;2023-05-10T12:40:20;18.17;;;6.53;;
70228;SDS011;57617;51.988;5.854;2023-05-10T12:42:46;14.50;;;5.88;;
70228;SDS011;57617;51.988;5.854;2023-05-10T12:45:11;15.73;;;6.10;;
70228;SDS011;57617;51.988;5.854;2023-05-10T12:47:36;13.05;;;6.15;;
70228;SDS011;57617;51.988;5.854;2023-05-10T12:50:02;11.50;;;6.20;;
70228;SDS011;57617;51.988;5.854;2023-05-10T12:52:28;12.75;;;6.40;;
70228;SDS011;57617;51.988;5.854;2023-05-10T12:54:54;13.55;;;6.38;;
70228;SDS011;57617;51.988;5.854;2023-05-10T12:57:20;13.88;;;6.18;;
70228;SDS011;57617;51.988;5.854;2023-05-10T12:59:46;12.60;;;6.40;;
70228;SDS011;57617;51.988;5.854;2023-05-10T13:02:11;11.65;;;6.55;;
70228;SDS011;57617;51.988;5.854;2023-05-10T13:04:36;12.02;;;5.97;;
70228;SDS011;57617;51.988;5.854;2023-05-10T13:07:08;12.88;;;5.63;;
70228;SDS011;57617;51.988;5.854;2023-05-10T13:09:34;12.15;;;6.00;;
70228;SDS011;57617;51.988;5.854;2023-05-10T13:11:59;10.32;;;5.28;;
70228;SDS011;57617;51.988;5.854;2023-05-10T13:14:25;16.98;;;6.03;;
70228;SDS011;57617;51.988;5.854;2023-05-10T13:16:50;11.05;;;5.38;;
70228;SDS011;57617;51.988;5.854;2023-05-10T13:19:16;12.63;;;6.15;;
70228;SDS011;57617;51.988;5.854;2023-05-10T13:21:42;13.93;;;5.85;;
70228;SDS011;57617;51.988;5.854;2023-05-10T13:24:09;12.90;;;6.50;;
70228;SDS011;57617;51.988;5.854;2023-05-10T13:26:35;15.18;;;6.13;;
70228;SDS011;57617;51.988;5.854;2023-05-10T13:29:01;10.65;;;5.60;;
70228;SDS011;57617;51.988;5.854;2023-05-10T13:31:26;12.02;;;5.90;;
70228;SDS011;57617;51.988;5.854;2023-05-10T13:33:52;15.38;;;5.70;;
70228;SDS011;57617;51.988;5.854;2023-05-10T13:36:17;12.45;;;5.68;;
70228;SDS011;57617;51.988;5.854;2023-05-10T13:38:42;11.93;;;6.00;;
70228;SDS011;57617;51.988;5.854;2023-05-10T13:41:07;12.82;;;7.03;;
70228;SDS011;57617;51.988;5.854;2023-05-10T13:43:33;18.25;;;9.18;;
70228;SDS011;57617;51.988;5.854;2023-05-10T13:45:58;16.80;;;9.63;;
70228;SDS011;57617;51.988;5.854;2023-05-10T13:48:23;18.13;;;10.30;;
70228;SDS011;57617;51.988;5.854;2023-05-10T13:50:49;18.63;;;11.00;;
70228;SDS011;57617;51.988;5.854;2023-05-10T13:53:14;19.73;;;11.68;;
70228;SDS011;57617;51.988;5.854;2023-05-10T13:55:40;17.17;;;10.38;;
70228;SDS011;57617;51.988;5.854;2023-05-10T13:58:06;17.50;;;11.13;;
70228;SDS011;57617;51.988;5.854;2023-05-10T14:00:31;22.38;;;10.40;;
70228;SDS011;57617;51.988;5.854;2023-05-10T14:02:56;15.27;;;10.32;;
70228;SDS011;57617;51.988;5.854;2023-05-10T14:05:22;19.77;;;11.57;;
70228;SDS011;57617;51.988;5.854;2023-05-10T14:07:48;20.17;;;11.30;;
70228;SDS011;57617;51.988;5.854;2023-05-10T14:10:13;19.00;;;11.45;;
70228;SDS011;57617;51.988;5.854;2023-05-10T14:12:39;20.63;;;11.73;;
70228;SDS011;57617;51.988;5.854;2023-05-10T14:15:04;16.58;;;10.95;;
70228;SDS011;57617;51.988;5.854;2023-05-10T14:17:31;17.05;;;10.95;;
70228;SDS011;57617;51.988;5.854;2023-05-10T14:19:56;18.50;;;10.82;;
70228;SDS011;57617;51.988;5.854;2023-05-10T14:22:22;20.13;;;11.00;;
70228;SDS011;57617;51.988;5.854;2023-05-10T14:24:47;17.83;;;9.68;;
70228;SDS011;57617;51.988;5.854;2023-05-10T14:27:13;15.23;;;9.55;;
70228;SDS011;57617;51.988;5.854;2023-05-10T14:29:38;12.82;;;8.43;;
70228;SDS011;57617;51.988;5.854;2023-05-10T14:32:03;15.63;;;9.60;;
70228;SDS011;57617;51.988;5.854;2023-05-10T14:34:29;15.38;;;9.10;;
70228;SDS011;57617;51.988;5.854;2023-05-10T14:36:54;13.13;;;7.68;;
70228;SDS011;57617;51.988;5.854;2023-05-10T14:39:20;12.55;;;6.72;;
70228;SDS011;57617;51.988;5.854;2023-05-10T14:41:45;13.43;;;6.57;;
70228;SDS011;57617;51.988;5.854;2023-05-10T14:44:12;15.02;;;6.85;;
70228;SDS011;57617;51.988;5.854;2023-05-10T14:46:37;12.18;;;6.78;;
70228;SDS011;57617;51.988;5.854;2023-05-10T14:49:03;11.23;;;6.60;;
70228;SDS011;57617;51.988;5.854;2023-05-10T14:51:28;11.00;;;6.57;;
70228;SDS011;57617;51.988;5.854;2023-05-10T14:53:53;12.32;;;6.82;;
70228;SDS011;57617;51.988;5.854;2023-05-10T14:56:19;11.52;;;5.78;;
70228;SDS011;57617;51.988;5.854;2023-05-10T14:58:45;10.23;;;5.43;;
70228;SDS011;57617;51.988;5.854;2023-05-10T15:01:10;8.80;;;5.30;;
70228;SDS011;57617;51.988;5.854;2023-05-10T15:03:36;9.50;;;5.05;;